ePrivacy and GPDR Cookie Consent by Cookie Consent
EmailTwitter


Surface observations / Quebec / CYUL (71627)

Regions: Quebec | Canada | USA | Europe | France | UK | Elsewhere
Station
Display
Info & Location for CYUL (71627) | Help decoding METAR

Weather Conditions observed on 2023/01/30 at 22:00 UTC at MONTREAL INTL A, QB (CYUL)

Obstruction(s) to Vision: light snow.

Temperature: -9.0 Celsius.

Dewpoint: -11.0 Celsius.

Relative Humidity: 85%

Windchill Factor -12.

Winds: North-northeast at 6 km/h or 3 knots.

Mean Sea level Pressure: 102.24 kilopascals.

Altimeter Setting (QNH): 102.20 kilopascals or 30.18 inches of mercury.

Horizontal visibility: 2.00 statute miles or 3.20 kilometers.

Coded METAR:

CYUL 302200Z 02003KT 2SM -SN VV009 M09/M11 A3018 RMK SN8 /S02/ SLP224=